Flag for Spain

Past Weather in 28°28'41.4"N, 16°14'12.6"W, Spain — Yesterday and Last 2 Weeks

Currently: 64 °F. Passing clouds. (Weather station: Tenerife / Los Rodeos, Spain). See more current weather

Past Weather in 28°28'41.4"N, 16°14'12.6"W — Graph

°F

28°28'41.4"N, 16°14'12.6"W Temperature Yesterday

Maximum temperature yesterday: 68 °F (at 3:00 pm)
Minimum temperature yesterday: 57 °F (at 6:30 am)
Average temperature yesterday: 61 °F

High & Low Weather Summary for the Past Weeks

 TemperatureHumidityPressure
High70 °F (May 18, 3:00 pm)100% (May 13, 9:30 pm)30.24 "Hg (May 13, 9:30 pm)
Low55 °F (May 16, 8:00 am)43% (May 20, 2:00 pm)30.01 "Hg (May 14, 6:00 pm)
Average60 °F82%30.11 "Hg
* Reported May 10 7:00 pm — May 25 7:30 pm, 28°28'41.4"N, 16°14'12.6"W. Weather by CustomWeather, © 2024

Note: Actual official high and low records may vary slightly from our data, if they occured in-between our weather recording intervals... More about our weather records

28°28'41.4"N, 16°14'12.6"W Weather History for the Previous 24 Hours

Scroll right to see more
 ConditionsComfort  
Time TempWeatherWind HumidityBarometerVisibility
7:30 pm
Sat, May 25
64 °FPassing clouds.17 mph68%30.15 "HgN/A
7:00 pm64 °FPassing clouds.17 mph68%30.15 "HgN/A
6:30 pm66 °FPassing clouds.16 mph60%30.15 "HgN/A
6:00 pm64 °FPassing clouds.18 mph64%30.15 "HgN/A
5:30 pm66 °FPassing clouds.18 mph64%30.15 "HgN/A
5:00 pm64 °FPassing clouds.20 mph60%30.15 "HgN/A
4:30 pm66 °FPassing clouds.21 mph60%30.15 "HgN/A
4:00 pm64 °FPassing clouds.21 mph64%30.18 "HgN/A
3:30 pm68 °FPassing clouds.22 mph60%30.18 "HgN/A
3:00 pm68 °FPassing clouds.22 mph64%30.18 "HgN/A
2:00 pm66 °FPassing clouds.20 mph68%30.18 "HgN/A
1:30 pm64 °FPassing clouds.20 mph68%30.21 "HgN/A
1:00 pm63 °FScattered clouds.18 mph68%30.21 "HgN/A
12:30 pm63 °FPassing clouds.17 mph68%30.21 "HgN/A
12:00 pm64 °FPassing clouds.20 mph64%30.21 "HgN/A
11:30 am64 °FPassing clouds.21 mph73%30.21 "HgN/A
11:00 am63 °FPassing clouds.21 mph73%30.21 "HgN/A
10:30 am61 °FScattered clouds.21 mph72%30.18 "HgN/A
10:00 am61 °FScattered clouds.21 mph77%30.18 "HgN/A
9:30 am61 °FScattered clouds.21 mph77%30.18 "HgN/A
9:00 am59 °FScattered clouds.22 mph82%30.18 "HgN/A
8:30 am57 °FPassing clouds.21 mph88%30.15 "HgN/A
8:00 am57 °FScattered clouds.22 mph88%30.15 "HgN/A
7:30 am55 °FPartly sunny.16 mph94%30.15 "HgN/A
7:00 am55 °FPassing clouds.16 mph94%30.15 "HgN/A
6:30 am55 °FPassing clouds.17 mph94%30.12 "HgN/A
6:00 am55 °FPassing clouds.20 mph94%30.12 "HgN/A
5:30 am55 °FPassing clouds.22 mph94%30.12 "HgN/A
5:00 am55 °FOvercast.18 mph94%30.12 "HgN/A
4:30 am57 °FOvercast.17 mph88%30.15 "HgN/A
4:00 am57 °FOvercast.18 mph88%30.15 "HgN/A
3:30 am55 °FOvercast.15 mph94%30.15 "HgN/A
3:00 am55 °FPassing clouds.16 mph94%30.15 "HgN/A
2:30 am55 °FPassing clouds.14 mph88%30.15 "HgN/A
2:00 am55 °FPassing clouds.15 mph88%30.18 "HgN/A
1:30 am57 °FPassing clouds.18 mph82%30.18 "HgN/A
1:00 am57 °FPassing clouds.20 mph82%30.18 "HgN/A
12:30 am57 °FPassing clouds.21 mph88%30.18 "HgN/A
12:00 am57 °FPassing clouds.21 mph88%30.18 "HgN/A
11:30 pm
Fri, May 24
57 °FPassing clouds.22 mph88%30.18 "HgN/A
11:00 pm57 °FPassing clouds.20 mph88%30.15 "HgN/A
10:30 pm57 °FPassing clouds.20 mph88%30.15 "HgN/A
10:00 pm57 °FPassing clouds.20 mph88%30.15 "HgN/A
9:30 pm59 °FPassing clouds.22 mph82%30.15 "HgN/A
9:00 pm59 °FPassing clouds.23 mph82%30.12 "HgN/A
8:30 pm59 °FPassing clouds.22 mph82%30.12 "HgN/A
8:00 pm61 °FPassing clouds.23 mph77%30.12 "HgN/A
Weather by CustomWeather, © 2024

See weather overview